createdAt,value
2023-05-19T00:02:06.177Z,100467.91
2023-05-19T00:05:10.625Z,100464.75
2023-05-19T00:08:16.368Z,100456.50
2023-05-19T00:11:19.777Z,100460.72
2023-05-19T00:14:23.223Z,100463.91
2023-05-19T00:17:26.780Z,100462.38
2023-05-19T00:20:29.997Z,100459.66
2023-05-19T00:23:33.425Z,100461.56
2023-05-19T00:26:36.270Z,100454.94
2023-05-19T00:29:40.288Z,100456.88
2023-05-19T00:32:43.173Z,100452.62
2023-05-19T00:35:46.255Z,100455.72
2023-05-19T00:38:49.048Z,100451.44
2023-05-19T00:41:52.146Z,100455.34
2023-05-19T00:44:54.939Z,100456.09
2023-05-19T00:47:58.729Z,100454.94
2023-05-19T00:51:04.932Z,100457.66
2023-05-19T00:54:09.701Z,100457.25
2023-05-19T00:57:15.248Z,100462.69
2023-05-19T01:00:18.506Z,100460.37
2023-05-19T01:03:23.302Z,100462.69
2023-05-19T01:06:27.948Z,100463.47
2023-05-19T01:09:32.368Z,100464.66
2023-05-19T01:12:36.814Z,100463.75
2023-05-19T01:15:52.305Z,100463.72
2023-05-19T01:19:25.731Z,100464.53
2023-05-19T01:22:55.585Z,100460.66
2023-05-19T01:26:16.906Z,100451.75
2023-05-19T01:29:55.887Z,100451.75
2023-05-19T01:33:02.337Z,100462.69
2023-05-19T01:36:06.277Z,100465.78
2023-05-19T01:39:09.498Z,100453.75
2023-05-19T01:42:13.305Z,100461.13
2023-05-19T01:45:17.173Z,100456.69
2023-05-19T01:48:20.117Z,100457.06
2023-05-19T01:51:24.126Z,100453.19
2023-05-19T01:54:26.946Z,100457.47
2023-05-19T01:57:52.249Z,100461.41
2023-05-19T02:01:16.558Z,100460.47
2023-05-19T02:04:32.533Z,100462.47
2023-05-19T02:07:44.415Z,100479.59
2023-05-19T02:11:01.237Z,100470.25
2023-05-19T02:14:10.507Z,100471.44
2023-05-19T02:17:15.959Z,100466.75
2023-05-19T02:20:18.931Z,100464.09
2023-05-19T02:23:22.403Z,100461.81
2023-05-19T02:26:25.295Z,100458.28
2023-05-19T02:29:29.543Z,100451.66
2023-05-19T02:32:33.309Z,100450.50
2023-05-19T02:35:36.458Z,100449.72
2023-05-19T02:38:39.247Z,100447.28
2023-05-19T02:41:42.354Z,100455.50
2023-05-19T02:44:46.296Z,100454.75
2023-05-19T02:47:49.442Z,100459.03
2023-05-19T02:50:52.245Z,100458.63
2023-05-19T02:53:55.404Z,100455.56
2023-05-19T02:56:58.385Z,100458.28
2023-05-19T03:00:01.835Z,100451.25
2023-05-19T03:03:04.809Z,100460.59
2023-05-19T03:06:09.698Z,100463.66
2023-05-19T03:09:13.940Z,100459.41
2023-05-19T03:12:17.182Z,100459.41
2023-05-19T03:15:23.009Z,100459.41
2023-05-19T03:18:26.868Z,100463.31
2023-05-19T03:21:30.529Z,100461.38
2023-05-19T03:24:33.647Z,100460.94
2023-05-19T03:27:38.140Z,100465.28
2023-05-19T03:30:41.940Z,100468.81
2023-05-19T03:33:45.353Z,100474.34
2023-05-19T03:36:50.412Z,100481.66
2023-05-19T03:39:53.325Z,100480.53
2023-05-19T03:42:56.909Z,100472.38
2023-05-19T03:45:59.962Z,100472.38
2023-05-19T03:49:05.714Z,100465.78
2023-05-19T03:52:10.005Z,100466.97
2023-05-19T03:55:14.841Z,100463.47
2023-05-19T03:58:17.822Z,100459.25
2023-05-19T04:01:20.996Z,100461.19
2023-05-19T04:04:24.095Z,100466.66
2023-05-19T04:07:27.273Z,100469.00
2023-05-19T04:10:30.705Z,100474.81
2023-05-19T04:13:34.759Z,100480.28
2023-05-19T04:16:37.968Z,100471.37
2023-05-19T04:19:41.165Z,100476.06
2023-05-19T04:22:44.358Z,100479.88
2023-05-19T04:25:48.855Z,100485.56
2023-05-19T04:28:52.809Z,100485.50
2023-05-19T04:31:57.322Z,100488.84
2023-05-19T04:35:00.868Z,100485.94
2023-05-19T04:38:04.324Z,100495.59
2023-05-19T04:41:11.101Z,100495.19
2023-05-19T04:44:18.486Z,100499.66
2023-05-19T04:47:22.534Z,100502.09
2023-05-19T04:50:25.626Z,100510.59
2023-05-19T04:53:29.542Z,100511.72
2023-05-19T04:56:32.532Z,100513.25
2023-05-19T04:59:37.353Z,100519.56
2023-05-19T05:02:43.726Z,100517.63
2023-05-19T05:05:47.943Z,100508.00
2023-05-19T05:08:53.040Z,100517.44
2023-05-19T05:11:56.909Z,100523.56
2023-05-19T05:15:00.724Z,100524.63
2023-05-19T05:18:05.103Z,100522.03
2023-05-19T05:21:08.512Z,100526.69
2023-05-19T05:24:12.314Z,100528.53
2023-05-19T05:27:16.624Z,100528.91
2023-05-19T05:30:19.720Z,100534.56
2023-05-19T05:33:24.965Z,100538.69
2023-05-19T05:36:28.380Z,100541.75
2023-05-19T05:39:31.986Z,100537.72
2023-05-19T05:42:35.793Z,100541.00
2023-05-19T05:45:38.752Z,100540.88
2023-05-19T05:48:42.888Z,100548.78
2023-05-19T05:52:01.529Z,100553.34
2023-05-19T05:55:09.595Z,100553.00
2023-05-19T05:58:12.547Z,100554.94
2023-05-19T06:01:17.010Z,100561.38
2023-05-19T06:04:21.322Z,100561.75
2023-05-19T06:07:24.597Z,100558.19
2023-05-19T06:10:31.292Z,100561.09
2023-05-19T06:13:38.596Z,100564.16
2023-05-19T06:16:42.910Z,100569.03
2023-05-19T06:19:47.033Z,100572.00
2023-05-19T06:22:50.984Z,100565.19
2023-05-19T06:25:54.747Z,100570.41
2023-05-19T06:28:57.873Z,100582.53
2023-05-19T06:32:01.314Z,100575.06
2023-05-19T06:35:05.657Z,100582.56
2023-05-19T06:38:08.488Z,100580.88
2023-05-19T06:41:11.525Z,100584.00
2023-05-19T06:44:15.512Z,100582.41
2023-05-19T06:47:22.995Z,100596.75
2023-05-19T06:50:27.957Z,100586.19
2023-05-19T06:53:31.476Z,100592.16
2023-05-19T06:56:35.434Z,100597.34
2023-05-19T06:59:41.034Z,100599.47
2023-05-19T07:02:44.366Z,100594.72
2023-05-19T07:05:47.721Z,100607.16
2023-05-19T07:08:51.246Z,100609.87
2023-05-19T07:11:56.500Z,100608.94
2023-05-19T07:14:59.767Z,100608.69
2023-05-19T07:18:03.799Z,100612.97
2023-05-19T07:21:07.650Z,100612.12
2023-05-19T07:24:11.388Z,100613.72
2023-05-19T07:27:14.350Z,100621.72
2023-05-19T07:30:17.587Z,100624.94
2023-05-19T07:33:20.663Z,100612.84
2023-05-19T07:36:24.007Z,100616.50
2023-05-19T07:39:30.212Z,100605.16
2023-05-19T07:42:33.701Z,100612.59
2023-05-19T07:45:36.701Z,100613.50
2023-05-19T07:48:40.482Z,100609.87
2023-05-19T07:51:43.628Z,100608.41
2023-05-19T07:54:46.996Z,100609.63
2023-05-19T07:57:51.061Z,100605.69
2023-05-19T08:00:57.954Z,100605.63
2023-05-19T08:04:01.441Z,100603.53
2023-05-19T08:07:04.680Z,100598.19
2023-05-19T08:10:09.141Z,100595.12
2023-05-19T08:13:12.236Z,100596.25
2023-05-19T08:16:18.907Z,100599.00
2023-05-19T08:19:21.984Z,100597.03
2023-05-19T08:22:26.150Z,100591.22
2023-05-19T08:25:29.217Z,100592.66
2023-05-19T08:28:32.524Z,100590.00
2023-05-19T08:31:35.523Z,100591.47
2023-05-19T08:34:38.832Z,100592.47
2023-05-19T08:37:43.301Z,100594.06
2023-05-19T08:40:48.855Z,100602.41
2023-05-19T08:43:51.825Z,100595.31
2023-05-19T08:46:57.756Z,100590.44
2023-05-19T08:50:11.148Z,100592.25
2023-05-19T08:53:34.035Z,100598.53
2023-05-19T08:56:37.988Z,100584.97
2023-05-19T08:59:41.678Z,100580.66
2023-05-19T09:02:55.046Z,100581.25
2023-05-19T09:06:07.834Z,100582.59
2023-05-19T09:09:11.481Z,100578.72
2023-05-19T09:12:16.101Z,100584.06
2023-05-19T09:15:19.527Z,100582.91
2023-05-19T09:18:25.820Z,100576.31
2023-05-19T09:21:33.346Z,100577.91
2023-05-19T09:24:38.619Z,100585.13
2023-05-19T09:27:41.597Z,100574.41
2023-05-19T09:30:46.306Z,100579.25
2023-05-19T09:33:53.612Z,100577.19
2023-05-19T09:37:01.117Z,100576.97
2023-05-19T09:40:06.802Z,100575.84
2023-05-19T09:43:10.254Z,100567.81
2023-05-19T09:46:14.926Z,100573.53
2023-05-19T09:49:21.137Z,100573.50
2023-05-19T09:52:26.033Z,100568.16
2023-05-19T09:55:31.000Z,100560.28
2023-05-19T09:58:35.589Z,100557.94
2023-05-19T10:01:41.275Z,100551.44
2023-05-19T10:04:45.207Z,100554.31
2023-05-19T10:07:51.643Z,100556.69
2023-05-19T10:10:55.264Z,100562.63
2023-05-19T10:13:58.384Z,100554.75
2023-05-19T10:17:01.719Z,100556.88
2023-05-19T10:20:07.201Z,100559.03
2023-05-19T10:23:10.500Z,100542.69
2023-05-19T10:26:13.809Z,100534.47
2023-05-19T10:29:21.014Z,100534.34
2023-05-19T10:32:28.422Z,100527.66
2023-05-19T10:35:50.412Z,100523.97
2023-05-19T10:39:04.757Z,100522.28
2023-05-19T10:42:26.567Z,100516.84
2023-05-19T10:45:31.950Z,100513.72
2023-05-19T10:48:38.687Z,100518.59
2023-05-19T10:51:47.261Z,100512.25
2023-05-19T10:54:52.853Z,100504.03
2023-05-19T10:57:58.889Z,100495.34
2023-05-19T11:01:02.078Z,100497.94
2023-05-19T11:04:12.542Z,100493.59
2023-05-19T11:07:20.684Z,100483.66
2023-05-19T11:10:25.395Z,100492.88
2023-05-19T11:13:28.942Z,100489.97
2023-05-19T11:16:33.431Z,100483.44
2023-05-19T11:19:38.576Z,100481.19
2023-05-19T11:22:41.507Z,100490.69
2023-05-19T11:25:50.460Z,100479.44
2023-05-19T11:28:54.807Z,100479.03
2023-05-19T11:31:58.207Z,100480.66
2023-05-19T11:35:02.626Z,100488.91
2023-05-19T11:38:07.579Z,100477.75
2023-05-19T11:41:10.587Z,100480.81
2023-05-19T11:44:13.771Z,100469.25
2023-05-19T11:47:17.478Z,100479.00
2023-05-19T11:50:21.078Z,100459.84
2023-05-19T11:53:24.152Z,100465.03
2023-05-19T11:56:27.432Z,100458.16
2023-05-19T11:59:33.476Z,100456.81
2023-05-19T12:02:38.767Z,100463.75
2023-05-19T12:05:48.062Z,100457.22
2023-05-19T12:08:52.940Z,100460.22
2023-05-19T12:11:56.287Z,100451.69
2023-05-19T12:15:03.739Z,100458.78
2023-05-19T12:18:07.484Z,100460.59
2023-05-19T12:21:10.722Z,100457.03
2023-05-19T12:24:14.236Z,100456.84
2023-05-19T12:27:20.226Z,100441.66
2023-05-19T12:30:29.071Z,100439.91
2023-05-19T12:33:33.675Z,100423.09
2023-05-19T12:39:42.989Z,100422.84
2023-05-19T12:42:46.244Z,100424.84
2023-05-19T12:45:49.749Z,100426.84
2023-05-19T12:48:53.469Z,100432.84
2023-05-19T12:51:56.505Z,100412.84
2023-05-19T12:55:01.521Z,100418.16
2023-05-19T12:58:07.257Z,100407.88
2023-05-19T13:01:18.092Z,100413.78
2023-05-19T13:04:21.424Z,100404.53
2023-05-19T13:07:24.811Z,100406.19
2023-05-19T13:10:30.068Z,100399.84
2023-05-19T13:13:33.729Z,100396.50
2023-05-19T13:16:36.854Z,100408.84
2023-05-19T13:19:40.125Z,100399.72
2023-05-19T13:22:43.414Z,100391.69
2023-05-19T13:25:46.661Z,100388.59
2023-05-19T13:28:49.634Z,100377.72
2023-05-19T13:31:53.350Z,100375.06
2023-05-19T13:34:56.640Z,100360.03
2023-05-19T13:38:00.051Z,100377.09
2023-05-19T13:41:02.955Z,100369.44
2023-05-19T13:44:06.345Z,100354.75
2023-05-19T13:47:09.305Z,100343.75
2023-05-19T13:50:12.684Z,100346.84
2023-05-19T13:53:15.801Z,100351.75
2023-05-19T13:56:19.243Z,100347.09
2023-05-19T13:59:22.245Z,100341.09
2023-05-19T14:02:25.559Z,100351.38
2023-05-19T14:05:29.253Z,100336.88
2023-05-19T14:08:32.887Z,100337.47
2023-05-19T14:11:36.012Z,100343.19
2023-05-19T14:14:39.040Z,100343.13
2023-05-19T14:17:42.387Z,100344.66
2023-05-19T14:20:45.507Z,100336.22
2023-05-19T14:23:48.920Z,100341.28
2023-05-19T14:26:52.767Z,100345.94
2023-05-19T14:29:56.069Z,100338.91
2023-05-19T14:33:00.327Z,100336.53
2023-05-19T14:36:06.260Z,100344.84
2023-05-19T14:39:10.986Z,100340.44
2023-05-19T14:42:14.204Z,100332.88
2023-05-19T14:45:18.448Z,100335.63
2023-05-19T14:48:21.709Z,100328.59
2023-05-19T14:51:24.727Z,100344.25
2023-05-19T14:54:28.331Z,100331.84
2023-05-19T14:57:31.506Z,100325.41
2023-05-19T15:00:35.155Z,100327.38
2023-05-19T15:03:38.597Z,100317.63
2023-05-19T15:06:41.982Z,100320.75
2023-05-19T15:09:45.011Z,100321.09
2023-05-19T15:12:48.939Z,100321.38
2023-05-19T15:16:08.347Z,100324.56
2023-05-19T15:19:18.784Z,100316.06
2023-05-19T15:22:21.802Z,100319.25
2023-05-19T15:25:24.993Z,100320.22
2023-05-19T15:28:28.062Z,100317.91
2023-05-19T15:31:31.366Z,100323.12
2023-05-19T15:34:34.363Z,100326.06
2023-05-19T15:37:38.637Z,100319.22
2023-05-19T15:40:41.965Z,100315.44
2023-05-19T15:43:46.602Z,100321.94
2023-05-19T15:46:49.797Z,100329.19
2023-05-19T15:49:53.082Z,100326.44
2023-05-19T15:52:55.952Z,100322.47
2023-05-19T15:55:59.147Z,100324.22
2023-05-19T15:59:02.434Z,100316.91
2023-05-19T16:02:05.858Z,100317.72
2023-05-19T16:05:09.301Z,100310.66
2023-05-19T16:08:12.226Z,100313.50
2023-05-19T16:11:15.909Z,100320.25
2023-05-19T16:14:18.868Z,100316.72
2023-05-19T16:17:22.469Z,100318.37
2023-05-19T16:20:28.255Z,100316.19
2023-05-19T16:23:31.534Z,100311.69
2023-05-19T16:26:34.661Z,100312.66
2023-05-19T16:29:37.892Z,100322.13
2023-05-19T16:32:41.017Z,100320.72
2023-05-19T16:35:44.302Z,100315.78
2023-05-19T16:38:48.665Z,100325.06
2023-05-19T16:41:54.247Z,100323.88
2023-05-19T16:44:57.104Z,100314.16
2023-05-19T16:48:01.390Z,100315.94
2023-05-19T16:51:04.387Z,100321.06
2023-05-19T16:54:07.618Z,100314.78
2023-05-19T16:57:10.670Z,100316.41
2023-05-19T17:00:14.713Z,100310.84
2023-05-19T17:03:17.804Z,100313.34
2023-05-19T17:06:21.215Z,100316.16
2023-05-19T17:09:26.261Z,100310.59
2023-05-19T17:12:29.532Z,100310.56
2023-05-19T17:15:34.201Z,100304.50
2023-05-19T17:18:37.605Z,100308.06
2023-05-19T17:21:42.029Z,100301.50
2023-05-19T17:24:45.870Z,100311.28
2023-05-19T17:27:48.875Z,100308.53
2023-05-19T17:30:53.402Z,100310.00
2023-05-19T17:33:56.478Z,100304.22
2023-05-19T17:37:01.465Z,100312.31
2023-05-19T17:40:04.734Z,100314.03
2023-05-19T17:43:08.742Z,100311.47
2023-05-19T17:46:11.930Z,100310.59
2023-05-19T17:49:15.451Z,100316.34
2023-05-19T17:52:19.564Z,100320.91
2023-05-19T17:55:24.897Z,100311.72
2023-05-19T17:58:28.906Z,100310.16
2023-05-19T18:01:33.085Z,100312.72
2023-05-19T18:04:36.907Z,100315.28
2023-05-19T18:07:40.355Z,100310.84
2023-05-19T18:10:44.069Z,100313.16
2023-05-19T18:13:47.044Z,100322.09
2023-05-19T18:16:50.421Z,100320.28
2023-05-19T18:19:54.711Z,100326.69
2023-05-19T18:22:58.833Z,100324.25
2023-05-19T18:26:02.044Z,100325.75
2023-05-19T18:29:05.872Z,100323.19
2023-05-19T18:32:09.228Z,100327.34
2023-05-19T18:35:12.507Z,100324.87
2023-05-19T18:38:15.589Z,100323.03
2023-05-19T18:41:18.908Z,100320.81
2023-05-19T18:44:21.846Z,100322.53
2023-05-19T18:47:25.121Z,100323.44
2023-05-19T18:50:28.028Z,100330.22
2023-05-19T18:53:34.970Z,100325.16
2023-05-19T18:56:38.071Z,100324.91
2023-05-19T18:59:41.527Z,100327.44
2023-05-19T19:02:44.560Z,100323.22
2023-05-19T19:05:57.600Z,100328.31
2023-05-19T19:09:00.677Z,100322.13
2023-05-19T19:12:04.162Z,100321.06
2023-05-19T19:15:07.464Z,100340.31
2023-05-19T19:18:11.419Z,100340.31
2023-05-19T19:21:14.776Z,100336.03
2023-05-19T19:24:18.047Z,100338.50
2023-05-19T19:27:21.473Z,100347.19
2023-05-19T19:30:25.845Z,100346.41
2023-05-19T19:33:28.741Z,100350.78
2023-05-19T19:36:32.135Z,100359.06
2023-05-19T19:39:35.249Z,100366.22
2023-05-19T19:42:38.758Z,100363.91
2023-05-19T19:45:42.174Z,100366.28
2023-05-19T19:48:45.666Z,100360.91
2023-05-19T19:51:48.786Z,100357.03
2023-05-19T19:54:52.089Z,100357.12
2023-05-19T19:57:54.991Z,100365.00
2023-05-19T20:01:03.179Z,100362.69
2023-05-19T20:04:06.272Z,100373.69
2023-05-19T20:07:09.608Z,100372.56
2023-05-19T20:10:14.134Z,100371.03
2023-05-19T20:13:18.990Z,100376.50
2023-05-19T20:16:24.691Z,100380.47
2023-05-19T20:19:27.768Z,100374.22
2023-05-19T20:22:32.107Z,100375.41
2023-05-19T20:25:53.693Z,100386.34
2023-05-19T20:29:04.834Z,100387.91
2023-05-19T20:32:07.840Z,100392.97
2023-05-19T20:35:11.325Z,100376.59
2023-05-19T20:38:14.625Z,100384.00
2023-05-19T20:41:17.925Z,100382.03
2023-05-19T20:44:20.935Z,100376.97
2023-05-19T20:47:24.289Z,100380.13
2023-05-19T20:50:27.300Z,100374.66
2023-05-19T20:53:30.714Z,100371.50
2023-05-19T20:56:34.299Z,100358.63
2023-05-19T20:59:37.495Z,100361.78
2023-05-19T21:02:40.518Z,100360.19
2023-05-19T21:05:43.790Z,100364.50
2023-05-19T21:08:46.529Z,100360.56
2023-05-19T21:11:49.774Z,100358.63
2023-05-19T21:14:52.727Z,100361.31
2023-05-19T21:17:58.470Z,100370.72
2023-05-19T21:21:04.157Z,100367.56
2023-05-19T21:24:07.503Z,100371.88
2023-05-19T21:27:10.390Z,100367.56
2023-05-19T21:30:14.389Z,100366.00
2023-05-19T21:33:17.550Z,100362.91
2023-05-19T21:36:21.027Z,100365.63
2023-05-19T21:39:23.966Z,100360.94
2023-05-19T21:42:27.585Z,100355.87
2023-05-19T21:45:30.608Z,100357.78
2023-05-19T21:48:33.959Z,100354.69
2023-05-19T21:51:36.925Z,100344.53
2023-05-19T21:54:40.124Z,100356.66
2023-05-19T21:57:43.267Z,100354.75
2023-05-19T22:00:50.852Z,100351.22
2023-05-19T22:03:54.252Z,100343.00
2023-05-19T22:07:01.149Z,100339.50
2023-05-19T22:10:04.769Z,100344.56
2023-05-19T22:13:07.790Z,100340.25
2023-05-19T22:16:11.337Z,100339.84
2023-05-19T22:19:14.894Z,100335.53
2023-05-19T22:22:18.123Z,100339.50
2023-05-19T22:25:21.436Z,100334.00
2023-05-19T22:28:25.364Z,100322.69
2023-05-19T22:31:30.622Z,100326.97
2023-05-19T22:34:33.881Z,100321.91
2023-05-19T22:37:37.726Z,100317.22
2023-05-19T22:40:41.025Z,100302.78
2023-05-19T22:43:44.581Z,100299.25
2023-05-19T22:46:47.770Z,100286.38
2023-05-19T22:49:51.352Z,100288.31
2023-05-19T22:52:54.569Z,100294.16
2023-05-19T22:55:57.602Z,100283.22
2023-05-19T22:59:01.025Z,100273.47
2023-05-19T23:02:07.606Z,100275.03
2023-05-19T23:05:10.882Z,100273.00
2023-05-19T23:08:13.904Z,100267.47
2023-05-19T23:11:17.240Z,100268.16
2023-05-19T23:14:21.843Z,100267.59
2023-05-19T23:17:24.857Z,100266.72
2023-05-19T23:20:27.453Z,100272.84
2023-05-19T23:23:31.448Z,100266.44
2023-05-19T23:26:34.404Z,100269.56
2023-05-19T23:29:37.817Z,100266.38
2023-05-19T23:32:41.236Z,100266.53
2023-05-19T23:35:46.850Z,100269.94
2023-05-19T23:38:50.009Z,100263.72
2023-05-19T23:41:53.377Z,100257.50
2023-05-19T23:44:56.376Z,100257.16
2023-05-19T23:47:59.577Z,100254.44
2023-05-19T23:51:02.458Z,100248.62
2023-05-19T23:54:05.933Z,100249.78
2023-05-19T23:57:08.913Z,100250.56
